createdAt,value
2023-03-03T00:00:55.261Z,0.00
2023-03-03T00:01:55.275Z,0.00
2023-03-03T00:02:55.251Z,0.00
2023-03-03T00:03:55.236Z,0.00
2023-03-03T00:04:55.227Z,0.00
2023-03-03T00:05:55.219Z,0.00
2023-03-03T00:06:55.201Z,0.00
2023-03-03T00:07:55.180Z,0.00
2023-03-03T00:08:55.180Z,0.00
2023-03-03T00:09:55.150Z,0.00
2023-03-03T00:10:55.145Z,0.00
2023-03-03T00:11:55.158Z,0.00
2023-03-03T00:12:55.121Z,0.00
2023-03-03T00:13:55.136Z,0.00
2023-03-03T00:14:55.112Z,0.00
2023-03-03T00:15:55.140Z,0.00
2023-03-03T00:16:55.094Z,0.00
2023-03-03T00:17:55.097Z,0.00
2023-03-03T00:18:55.067Z,0.00
2023-03-03T00:19:55.056Z,0.00
2023-03-03T00:20:55.030Z,0.00
2023-03-03T00:21:55.031Z,0.00
2023-03-03T00:22:55.027Z,0.00
2023-03-03T00:23:55.006Z,0.00
2023-03-03T00:24:54.997Z,0.00
2023-03-03T00:25:55.011Z,0.00
2023-03-03T00:26:54.994Z,0.00
2023-03-03T00:27:54.948Z,0.00
2023-03-03T00:28:54.941Z,0.00
2023-03-03T00:29:54.971Z,0.00
2023-03-03T00:30:54.957Z,0.00
2023-03-03T00:31:54.974Z,0.00
2023-03-03T00:32:54.922Z,0.00
2023-03-03T00:33:55.014Z,0.00
2023-03-03T00:34:54.886Z,0.00
2023-03-03T00:35:54.932Z,0.00
2023-03-03T00:36:54.855Z,0.00
2023-03-03T00:37:54.851Z,0.00
2023-03-03T00:38:54.829Z,0.00
2023-03-03T00:39:54.828Z,0.00
2023-03-03T00:40:54.820Z,0.00
2023-03-03T00:41:54.806Z,0.00
2023-03-03T00:42:54.802Z,0.00
2023-03-03T00:43:54.773Z,0.00
2023-03-03T00:44:54.762Z,0.00
2023-03-03T00:45:54.861Z,0.00
2023-03-03T00:46:54.752Z,0.00
2023-03-03T00:47:54.743Z,0.00
2023-03-03T00:48:54.735Z,0.00
2023-03-03T00:49:54.735Z,0.00
2023-03-03T00:50:54.710Z,0.00
2023-03-03T00:51:54.695Z,0.00
2023-03-03T00:52:54.686Z,0.00
2023-03-03T00:53:54.675Z,0.00
2023-03-03T00:54:54.662Z,0.00
2023-03-03T00:55:54.656Z,0.00
2023-03-03T00:56:54.644Z,0.00
2023-03-03T00:57:54.638Z,0.00
2023-03-03T00:58:54.650Z,0.00
2023-03-03T00:59:54.602Z,0.00
2023-03-03T01:00:54.598Z,0.00
2023-03-03T01:01:54.694Z,0.00
2023-03-03T01:02:54.660Z,0.00
2023-03-03T01:03:54.544Z,0.00
2023-03-03T01:04:54.542Z,0.00
2023-03-03T01:05:54.539Z,0.00
2023-03-03T01:06:54.524Z,0.00
2023-03-03T01:07:54.528Z,0.00
2023-03-03T01:08:54.500Z,0.00
2023-03-03T01:09:54.493Z,0.00
2023-03-03T01:10:54.494Z,0.00
2023-03-03T01:11:54.458Z,0.00
2023-03-03T01:12:54.461Z,0.00
2023-03-03T01:13:54.541Z,0.00
2023-03-03T01:14:54.431Z,0.00
2023-03-03T01:15:54.527Z,0.00
2023-03-03T01:16:54.410Z,0.00
2023-03-03T01:17:54.442Z,0.00
2023-03-03T01:18:54.387Z,0.00
2023-03-03T01:19:54.369Z,0.00
2023-03-03T01:20:54.360Z,0.00
2023-03-03T01:21:54.359Z,0.00
2023-03-03T01:22:54.356Z,0.00
2023-03-03T01:23:54.328Z,0.00
2023-03-03T01:24:54.312Z,0.00
2023-03-03T01:25:54.298Z,0.00
2023-03-03T01:26:54.290Z,0.00
2023-03-03T01:27:54.307Z,0.00
2023-03-03T01:28:54.259Z,0.00
2023-03-03T01:29:54.255Z,0.00
2023-03-03T01:30:54.319Z,0.00
2023-03-03T01:31:54.273Z,0.00
2023-03-03T01:32:54.222Z,0.00
2023-03-03T01:33:54.265Z,0.00
2023-03-03T01:34:54.197Z,0.00
2023-03-03T01:35:54.261Z,0.00
2023-03-03T01:36:54.185Z,0.00
2023-03-03T01:37:54.162Z,0.00
2023-03-03T01:38:54.161Z,0.00
2023-03-03T01:39:54.141Z,0.00
2023-03-03T01:40:54.129Z,0.00
2023-03-03T01:41:54.120Z,0.00
2023-03-03T01:42:54.105Z,0.00
2023-03-03T01:43:54.115Z,0.00
2023-03-03T01:44:54.085Z,0.00
2023-03-03T01:45:54.074Z,0.00
2023-03-03T01:46:54.071Z,0.00
2023-03-03T01:47:54.065Z,0.00
2023-03-03T01:48:54.075Z,0.00
2023-03-03T01:49:54.054Z,0.00
2023-03-03T01:50:54.025Z,0.00
2023-03-03T01:51:54.020Z,0.00
2023-03-03T01:52:54.004Z,0.00
2023-03-03T01:53:54.013Z,0.00
2023-03-03T01:54:53.981Z,0.00
2023-03-03T01:55:53.978Z,0.00
2023-03-03T01:56:53.957Z,0.00
2023-03-03T01:57:53.940Z,0.00
2023-03-03T01:58:53.951Z,0.00
2023-03-03T01:59:53.935Z,0.00
2023-03-03T02:00:53.898Z,0.00
2023-03-03T02:01:53.947Z,0.00
2023-03-03T02:02:53.912Z,0.00
2023-03-03T02:03:53.886Z,0.00
2023-03-03T02:04:53.866Z,0.00
2023-03-03T02:05:53.869Z,0.00
2023-03-03T02:06:53.842Z,0.00
2023-03-03T02:07:53.836Z,0.00
2023-03-03T02:08:53.826Z,0.00
2023-03-03T02:09:53.814Z,0.00
2023-03-03T02:10:53.813Z,0.00
2023-03-03T02:11:53.793Z,0.00
2023-03-03T02:12:53.780Z,0.00
2023-03-03T02:13:53.774Z,0.00
2023-03-03T02:14:53.778Z,0.00
2023-03-03T02:15:53.740Z,0.00
2023-03-03T02:16:53.738Z,0.00
2023-03-03T02:17:53.730Z,0.00
2023-03-03T02:18:53.727Z,0.00
2023-03-03T02:19:53.698Z,0.00
2023-03-03T02:20:53.694Z,0.00
2023-03-03T02:21:54.252Z,0.00
2023-03-03T02:22:53.657Z,0.00
2023-03-03T02:23:53.678Z,0.00
2023-03-03T02:24:53.634Z,0.00
2023-03-03T02:25:53.633Z,0.00
2023-03-03T02:26:53.624Z,0.00
2023-03-03T02:27:53.606Z,0.00
2023-03-03T02:28:53.605Z,0.00
2023-03-03T02:29:53.583Z,0.00
2023-03-03T02:30:53.567Z,0.00
2023-03-03T02:31:53.686Z,0.00
2023-03-03T02:32:53.548Z,0.00
2023-03-03T02:33:53.552Z,0.00
2023-03-03T02:34:53.519Z,0.00
2023-03-03T02:35:53.547Z,0.00
2023-03-03T02:36:53.524Z,0.00
2023-03-03T02:37:53.513Z,0.00
2023-03-03T02:38:53.494Z,0.00
2023-03-03T02:39:53.471Z,0.00
2023-03-03T02:40:53.456Z,0.00
2023-03-03T02:41:53.464Z,0.00
2023-03-03T02:42:53.447Z,0.00
2023-03-03T02:43:53.463Z,0.00
2023-03-03T02:44:53.424Z,0.00
2023-03-03T02:45:53.503Z,0.00
2023-03-03T02:46:53.398Z,0.00
2023-03-03T02:47:53.384Z,0.00
2023-03-03T02:48:53.366Z,0.00
2023-03-03T02:49:53.378Z,0.00
2023-03-03T02:50:53.346Z,0.00
2023-03-03T02:51:53.347Z,0.00
2023-03-03T02:52:53.336Z,0.00
2023-03-03T02:53:53.342Z,0.00
2023-03-03T02:54:53.314Z,0.00
2023-03-03T02:55:53.292Z,0.00
2023-03-03T02:56:53.291Z,0.00
2023-03-03T02:57:53.273Z,0.00
2023-03-03T02:58:53.246Z,0.00
2023-03-03T02:59:53.253Z,0.00
2023-03-03T03:00:53.304Z,0.00
2023-03-03T03:01:53.216Z,0.00
2023-03-03T03:02:53.197Z,0.00
2023-03-03T03:03:53.246Z,0.00
2023-03-03T03:04:53.188Z,0.00
2023-03-03T03:05:53.180Z,0.00
2023-03-03T03:06:53.176Z,0.00
2023-03-03T03:07:53.158Z,0.00
2023-03-03T03:08:53.141Z,0.00
2023-03-03T03:09:53.161Z,0.00
2023-03-03T03:10:53.107Z,0.00
2023-03-03T03:11:53.110Z,0.00
2023-03-03T03:12:53.100Z,0.00
2023-03-03T03:13:53.092Z,0.00
2023-03-03T03:14:53.089Z,0.00
2023-03-03T03:15:53.074Z,0.00
2023-03-03T03:16:53.086Z,0.00
2023-03-03T03:17:53.050Z,0.00
2023-03-03T03:18:53.031Z,0.00
2023-03-03T03:19:53.034Z,0.00
2023-03-03T03:20:52.997Z,0.00
2023-03-03T03:21:52.989Z,0.00
2023-03-03T03:22:52.986Z,0.00
2023-03-03T03:23:52.978Z,0.00
2023-03-03T03:24:52.964Z,0.00
2023-03-03T03:25:52.968Z,0.00
2023-03-03T03:26:52.962Z,0.00
2023-03-03T03:27:52.927Z,0.00
2023-03-03T03:28:53.086Z,0.00
2023-03-03T03:29:52.937Z,0.00
2023-03-03T03:30:52.931Z,0.00
2023-03-03T03:31:53.045Z,0.00
2023-03-03T03:32:52.861Z,0.00
2023-03-03T03:33:52.853Z,0.00
2023-03-03T03:34:52.862Z,0.00
2023-03-03T03:35:52.924Z,0.00
2023-03-03T03:36:52.829Z,0.00
2023-03-03T03:37:52.836Z,0.00
2023-03-03T03:38:52.818Z,0.00
2023-03-03T03:39:52.805Z,0.00
2023-03-03T03:40:52.780Z,0.00
2023-03-03T03:41:52.797Z,0.00
2023-03-03T03:42:52.780Z,0.00
2023-03-03T03:43:52.757Z,0.00
2023-03-03T03:44:52.740Z,0.00
2023-03-03T03:45:52.805Z,0.00
2023-03-03T03:46:52.700Z,0.00
2023-03-03T03:47:52.709Z,0.00
2023-03-03T03:48:52.694Z,0.00
2023-03-03T03:49:52.697Z,0.00
2023-03-03T03:50:52.671Z,0.00
2023-03-03T03:51:52.662Z,0.00
2023-03-03T03:52:52.636Z,0.00
2023-03-03T03:53:52.662Z,0.00
2023-03-03T03:54:52.632Z,0.00
2023-03-03T03:55:52.620Z,0.00
2023-03-03T03:56:52.594Z,0.00
2023-03-03T03:57:52.627Z,0.00
2023-03-03T03:58:52.585Z,0.00
2023-03-03T03:59:52.575Z,0.00
2023-03-03T04:00:52.551Z,0.00
2023-03-03T04:01:52.557Z,0.00
2023-03-03T04:02:52.681Z,0.00
2023-03-03T04:03:52.537Z,0.00
2023-03-03T04:04:52.537Z,0.00
2023-03-03T04:05:52.503Z,0.00
2023-03-03T04:06:52.499Z,0.00
2023-03-03T04:07:52.480Z,0.00
2023-03-03T04:08:52.475Z,0.00
2023-03-03T04:09:52.469Z,0.00
2023-03-03T04:10:52.452Z,0.00
2023-03-03T04:11:52.436Z,0.00
2023-03-03T04:12:52.430Z,0.00
2023-03-03T04:13:52.435Z,0.00
2023-03-03T04:14:52.409Z,0.00
2023-03-03T04:15:52.522Z,0.00
2023-03-03T04:16:52.388Z,0.00
2023-03-03T04:17:52.386Z,0.00
2023-03-03T04:18:52.368Z,0.00
2023-03-03T04:19:52.488Z,0.00
2023-03-03T04:20:52.333Z,0.00
2023-03-03T04:21:52.322Z,0.00
2023-03-03T04:22:52.353Z,0.00
2023-03-03T04:23:52.301Z,0.00
2023-03-03T04:24:52.302Z,0.00
2023-03-03T04:25:52.283Z,0.00
2023-03-03T04:26:52.272Z,0.00
2023-03-03T04:27:52.280Z,0.00
2023-03-03T04:28:52.241Z,0.00
2023-03-03T04:29:52.278Z,0.00
2023-03-03T04:30:52.274Z,0.00
2023-03-03T04:31:52.329Z,0.00
2023-03-03T04:32:52.209Z,0.00
2023-03-03T04:33:52.199Z,0.00
2023-03-03T04:34:58.598Z,0.00
2023-03-03T04:35:53.278Z,0.00
2023-03-03T04:36:52.153Z,0.00
2023-03-03T04:37:52.164Z,0.00
2023-03-03T04:38:52.142Z,0.00
2023-03-03T04:39:52.131Z,0.00
2023-03-03T04:40:52.120Z,0.00
2023-03-03T04:41:52.106Z,0.00
2023-03-03T04:42:52.095Z,0.00
2023-03-03T04:43:52.086Z,0.00
2023-03-03T04:44:52.061Z,0.00
2023-03-03T04:45:52.185Z,0.00
2023-03-03T04:46:52.046Z,0.00
2023-03-03T04:47:52.030Z,0.00
2023-03-03T04:48:52.030Z,0.00
2023-03-03T04:49:52.035Z,0.00
2023-03-03T04:50:52.019Z,0.00
2023-03-03T04:51:51.989Z,0.00
2023-03-03T04:52:51.972Z,0.00
2023-03-03T04:53:51.980Z,0.00
2023-03-03T04:54:51.954Z,0.00
2023-03-03T04:55:51.965Z,0.00
2023-03-03T04:56:51.947Z,0.00
2023-03-03T04:57:51.939Z,0.00
2023-03-03T04:58:51.931Z,0.00
2023-03-03T04:59:51.918Z,0.00
2023-03-03T05:00:51.914Z,0.00
2023-03-03T05:01:52.003Z,0.00
2023-03-03T05:02:51.868Z,0.00
2023-03-03T05:03:51.858Z,0.00
2023-03-03T05:04:51.929Z,0.00
2023-03-03T05:05:51.852Z,0.00
2023-03-03T05:06:51.846Z,0.00
2023-03-03T05:07:51.824Z,0.00
2023-03-03T05:08:51.797Z,0.00
2023-03-03T05:09:51.776Z,0.00
2023-03-03T05:10:51.779Z,0.00
2023-03-03T05:11:51.751Z,0.00
2023-03-03T05:12:51.742Z,0.00
2023-03-03T05:13:51.742Z,0.00
2023-03-03T05:14:51.733Z,0.00
2023-03-03T05:15:51.780Z,0.00
2023-03-03T05:16:51.712Z,0.00
2023-03-03T05:17:51.720Z,0.00
2023-03-03T05:18:51.683Z,0.00
2023-03-03T05:19:51.665Z,0.00
2023-03-03T05:20:51.697Z,0.00
2023-03-03T05:21:51.634Z,0.00
2023-03-03T05:22:51.641Z,0.00
2023-03-03T05:23:51.625Z,0.00
2023-03-03T05:24:51.637Z,0.00
2023-03-03T05:25:51.602Z,0.00
2023-03-03T05:26:51.592Z,0.00
2023-03-03T05:27:51.579Z,0.00
2023-03-03T05:28:51.559Z,0.00
2023-03-03T05:29:51.543Z,0.00
2023-03-03T05:30:51.577Z,0.00
2023-03-03T05:31:51.533Z,0.00
2023-03-03T05:32:51.518Z,0.00
2023-03-03T05:33:51.566Z,0.00
2023-03-03T05:34:51.490Z,0.00
2023-03-03T05:35:51.550Z,0.00
2023-03-03T05:36:51.479Z,0.00
2023-03-03T05:37:51.450Z,0.00
2023-03-03T05:38:51.456Z,0.00
2023-03-03T05:39:51.452Z,0.00
2023-03-03T05:40:51.449Z,0.00
2023-03-03T05:41:51.412Z,0.00
2023-03-03T05:42:51.505Z,0.00
2023-03-03T05:43:51.405Z,0.00
2023-03-03T05:44:51.422Z,0.00
2023-03-03T05:45:51.374Z,0.00
2023-03-03T05:46:51.400Z,0.00
2023-03-03T05:47:51.342Z,0.00
2023-03-03T05:48:51.335Z,4.00
2023-03-03T05:49:51.350Z,4.00
2023-03-03T05:50:51.348Z,0.00
2023-03-03T05:51:51.329Z,0.00
2023-03-03T05:52:51.310Z,4.00
2023-03-03T05:53:51.301Z,4.00
2023-03-03T05:54:51.272Z,0.00
2023-03-03T05:55:51.254Z,4.00
2023-03-03T05:56:51.305Z,4.00
2023-03-03T05:57:51.248Z,4.00
2023-03-03T05:58:51.262Z,8.00
2023-03-03T05:59:51.223Z,4.00
2023-03-03T06:00:51.231Z,8.00
2023-03-03T06:01:51.240Z,8.00
2023-03-03T06:02:51.248Z,8.00
2023-03-03T06:03:51.177Z,8.00
2023-03-03T06:04:51.171Z,12.00
2023-03-03T06:05:51.170Z,16.00
2023-03-03T06:06:51.163Z,16.00
2023-03-03T06:07:51.116Z,16.00
2023-03-03T06:08:51.129Z,20.00
2023-03-03T06:09:51.102Z,20.00
2023-03-03T06:10:51.109Z,24.00
2023-03-03T06:11:51.086Z,24.00
2023-03-03T06:12:51.068Z,28.00
2023-03-03T06:13:51.052Z,28.00
2023-03-03T06:14:51.045Z,36.00
2023-03-03T06:15:51.025Z,40.00
2023-03-03T06:16:51.045Z,40.00
2023-03-03T06:17:51.002Z,44.00
2023-03-03T06:18:51.013Z,48.00
2023-03-03T06:19:50.983Z,48.00
2023-03-03T06:20:50.975Z,52.00
2023-03-03T06:21:51.084Z,56.00
2023-03-03T06:22:50.952Z,60.00
2023-03-03T06:23:50.961Z,64.00
2023-03-03T06:24:50.933Z,68.00
2023-03-03T06:25:50.914Z,72.00
2023-03-03T06:26:50.943Z,84.00
2023-03-03T06:27:50.909Z,96.00
2023-03-03T06:28:50.882Z,108.00
2023-03-03T06:29:50.881Z,108.00
2023-03-03T06:30:50.877Z,112.00
2023-03-03T06:31:50.988Z,116.00
2023-03-03T06:32:50.851Z,124.00
2023-03-03T06:33:50.820Z,136.00
2023-03-03T06:34:50.820Z,140.00
2023-03-03T06:35:50.870Z,140.00
2023-03-03T06:36:50.808Z,144.00
2023-03-03T06:37:50.889Z,140.00
2023-03-03T06:38:50.770Z,148.00
2023-03-03T06:39:50.765Z,164.00
2023-03-03T06:40:50.769Z,168.00
2023-03-03T06:41:50.746Z,164.00
2023-03-03T06:42:50.746Z,164.00
2023-03-03T06:43:51.352Z,164.00
2023-03-03T06:44:50.715Z,176.00
2023-03-03T06:45:50.768Z,188.00
2023-03-03T06:46:50.694Z,192.00
2023-03-03T06:47:50.671Z,192.00
2023-03-03T06:48:50.668Z,192.00
2023-03-03T06:49:50.653Z,200.00
2023-03-03T06:50:50.647Z,204.00
2023-03-03T06:51:50.647Z,204.00
2023-03-03T06:52:50.622Z,212.00
2023-03-03T06:53:50.624Z,216.00
2023-03-03T06:54:50.588Z,216.00
2023-03-03T06:55:50.572Z,224.00
2023-03-03T06:56:50.596Z,244.00
2023-03-03T06:57:50.550Z,260.00
2023-03-03T06:58:50.545Z,264.00
2023-03-03T06:59:50.528Z,276.00
2023-03-03T07:00:50.584Z,296.00
2023-03-03T07:01:50.517Z,292.00
2023-03-03T07:02:50.500Z,284.00
2023-03-03T07:03:50.542Z,300.00
2023-03-03T07:04:50.502Z,316.00
2023-03-03T07:05:50.480Z,320.00
2023-03-03T07:06:50.491Z,332.00
2023-03-03T07:07:50.444Z,328.00
2023-03-03T07:08:50.456Z,336.00
2023-03-03T07:09:50.463Z,348.00
2023-03-03T07:10:50.435Z,368.00
2023-03-03T07:11:50.415Z,372.00
2023-03-03T07:12:50.423Z,376.00
2023-03-03T07:13:50.398Z,392.00
2023-03-03T07:14:50.391Z,376.00
2023-03-03T07:15:50.373Z,404.00
2023-03-03T07:16:50.397Z,444.00
2023-03-03T07:17:51.314Z,444.00
2023-03-03T07:18:50.357Z,424.00
2023-03-03T07:19:50.417Z,440.00
2023-03-03T07:20:50.331Z,476.00
2023-03-03T07:21:50.295Z,496.00
2023-03-03T07:22:50.300Z,500.00
2023-03-03T07:23:50.286Z,544.00
2023-03-03T07:24:52.753Z,580.00
2023-03-03T07:25:50.299Z,580.00
2023-03-03T07:26:50.264Z,560.00
2023-03-03T07:27:50.259Z,556.00
2023-03-03T07:28:50.220Z,568.00
2023-03-03T07:29:50.211Z,544.00
2023-03-03T07:30:50.259Z,524.00
2023-03-03T07:31:50.197Z,548.00
2023-03-03T07:32:50.188Z,596.00
2023-03-03T07:33:50.161Z,616.00
2023-03-03T07:34:50.166Z,620.00
2023-03-03T07:35:50.224Z,636.00
2023-03-03T07:36:50.131Z,644.00
2023-03-03T07:37:50.144Z,636.00
2023-03-03T07:38:50.116Z,648.00
2023-03-03T07:39:50.094Z,668.00
2023-03-03T07:40:50.100Z,720.00
2023-03-03T07:41:50.096Z,776.00
2023-03-03T07:42:50.093Z,796.00
2023-03-03T07:43:50.069Z,788.00
2023-03-03T07:44:50.044Z,792.00
2023-03-03T07:45:50.083Z,812.00
2023-03-03T07:46:50.033Z,828.00
2023-03-03T07:47:50.035Z,836.00
2023-03-03T07:48:49.995Z,832.00
2023-03-03T07:49:49.997Z,848.00
2023-03-03T07:50:50.012Z,864.00
2023-03-03T07:51:49.962Z,900.00
2023-03-03T07:52:49.972Z,920.00
2023-03-03T07:53:49.987Z,892.00
2023-03-03T07:54:49.929Z,864.00
2023-03-03T07:55:49.928Z,888.00
2023-03-03T07:56:49.908Z,912.00
2023-03-03T07:57:49.925Z,912.00
2023-03-03T07:58:49.886Z,916.00
2023-03-03T07:59:49.895Z,908.00
2023-03-03T08:00:49.898Z,904.00
2023-03-03T08:01:49.862Z,884.00
2023-03-03T08:02:49.872Z,864.00
2023-03-03T08:03:49.828Z,872.00
2023-03-03T08:04:50.057Z,904.00
2023-03-03T08:05:49.823Z,944.00
2023-03-03T08:06:49.806Z,972.00
2023-03-03T08:07:49.812Z,980.00
2023-03-03T08:08:49.778Z,972.00
2023-03-03T08:09:49.759Z,940.00
2023-03-03T08:10:49.803Z,956.00
2023-03-03T08:11:49.771Z,992.00
2023-03-03T08:12:49.744Z,1008.00
2023-03-03T08:13:49.757Z,1008.00
2023-03-03T08:14:49.699Z,1032.00
2023-03-03T08:15:49.797Z,1104.00
2023-03-03T08:16:49.674Z,1120.00
2023-03-03T08:17:49.689Z,1096.00
2023-03-03T08:18:49.652Z,1072.00
2023-03-03T08:19:49.633Z,1072.00
2023-03-03T08:20:49.643Z,1056.00
2023-03-03T08:21:49.624Z,1024.00
2023-03-03T08:22:49.630Z,1036.00
2023-03-03T08:23:49.591Z,1052.00
2023-03-03T08:24:49.586Z,1020.00
2023-03-03T08:25:49.565Z,1000.00
2023-03-03T08:26:49.568Z,1044.00
2023-03-03T08:27:49.556Z,1080.00
2023-03-03T08:28:49.544Z,1080.00
2023-03-03T08:29:49.555Z,1092.00
2023-03-03T08:30:49.539Z,1120.00
2023-03-03T08:31:49.556Z,1160.00
2023-03-03T08:32:49.547Z,1172.00
2023-03-03T08:33:49.473Z,1136.00
2023-03-03T08:34:49.478Z,1136.00
2023-03-03T08:35:49.489Z,1192.00
2023-03-03T08:36:49.472Z,1224.00
2023-03-03T08:37:49.446Z,1208.00
2023-03-03T08:38:49.425Z,1252.00
2023-03-03T08:39:49.412Z,1312.00
2023-03-03T08:40:49.406Z,1304.00
2023-03-03T08:41:49.380Z,1296.00
2023-03-03T08:42:49.386Z,1340.00
2023-03-03T08:43:49.360Z,1368.00
2023-03-03T08:44:49.361Z,1308.00
2023-03-03T08:45:49.370Z,1284.00
2023-03-03T08:46:49.415Z,1352.00
2023-03-03T08:47:49.426Z,1456.00
2023-03-03T08:48:49.318Z,1488.00
2023-03-03T08:49:49.293Z,1484.00
2023-03-03T08:50:49.283Z,1524.00
2023-03-03T08:51:49.266Z,1560.00
2023-03-03T08:52:49.288Z,1568.00
2023-03-03T08:53:49.244Z,1548.00
2023-03-03T08:54:49.252Z,1492.00
2023-03-03T08:55:49.236Z,1392.00
2023-03-03T08:56:49.235Z,1372.00
2023-03-03T08:57:49.230Z,1420.00
2023-03-03T08:59:01.627Z,1476.00
2023-03-03T08:59:50.186Z,1496.00
2023-03-03T09:00:51.197Z,1564.00
2023-03-03T09:01:49.220Z,1636.00
2023-03-03T09:02:49.163Z,1700.00
2023-03-03T09:03:49.146Z,1700.00
2023-03-03T09:04:49.151Z,1772.00
2023-03-03T09:05:49.136Z,1912.00
2023-03-03T09:06:49.101Z,1936.00
2023-03-03T09:07:49.106Z,1856.00
2023-03-03T09:08:49.091Z,1772.00
2023-03-03T09:09:49.070Z,1816.00
2023-03-03T09:10:49.073Z,1788.00
2023-03-03T09:11:49.072Z,1744.00
2023-03-03T09:12:49.064Z,1772.00
2023-03-03T09:13:49.018Z,1820.00
2023-03-03T09:14:49.031Z,1880.00
2023-03-03T09:15:49.185Z,1784.00
2023-03-03T09:16:48.986Z,1736.00
2023-03-03T09:17:49.011Z,1768.00
2023-03-03T09:18:48.991Z,1892.00
2023-03-03T09:19:48.963Z,1908.00
2023-03-03T09:20:48.956Z,1908.00
2023-03-03T09:21:48.944Z,1976.00
2023-03-03T09:22:48.934Z,2000.00
2023-03-03T09:23:48.922Z,1992.00
2023-03-03T09:24:48.914Z,1964.00
2023-03-03T09:25:48.900Z,1960.00
2023-03-03T09:26:48.881Z,1980.00
2023-03-03T09:27:48.888Z,1976.00
2023-03-03T09:28:48.873Z,2012.00
2023-03-03T09:29:48.851Z,2072.00
2023-03-03T09:30:48.832Z,1920.00
2023-03-03T09:31:48.860Z,1992.00
2023-03-03T09:32:48.837Z,2052.00
2023-03-03T09:33:48.821Z,2024.00
2023-03-03T09:34:48.792Z,1996.00
2023-03-03T09:35:48.820Z,2068.00
2023-03-03T09:36:48.761Z,2200.00
2023-03-03T09:37:48.783Z,2300.00
2023-03-03T09:38:48.750Z,2216.00
2023-03-03T09:39:48.752Z,2260.00
2023-03-03T09:40:48.726Z,2288.00
2023-03-03T09:41:48.711Z,2308.00
2023-03-03T09:42:48.706Z,2264.00
2023-03-03T09:43:48.684Z,2264.00
2023-03-03T09:44:48.681Z,2316.00
2023-03-03T09:45:48.678Z,2184.00
2023-03-03T09:46:48.757Z,2144.00
2023-03-03T09:47:48.659Z,2052.00
2023-03-03T09:48:48.628Z,2004.00
2023-03-03T09:49:48.659Z,2084.00
2023-03-03T09:50:48.621Z,2056.00
2023-03-03T09:51:48.604Z,2008.00
2023-03-03T09:52:48.604Z,1996.00
2023-03-03T09:53:49.214Z,1980.00
2023-03-03T09:54:48.565Z,2020.00
2023-03-03T09:55:48.548Z,2012.00
2023-03-03T09:56:48.531Z,1960.00
2023-03-03T09:57:55.731Z,1952.00
2023-03-03T09:58:49.522Z,1904.00
2023-03-03T09:59:48.516Z,1904.00
2023-03-03T10:00:48.498Z,1924.00
2023-03-03T10:01:48.493Z,1864.00
2023-03-03T10:02:49.096Z,1892.00
2023-03-03T10:03:48.526Z,2032.00
2023-03-03T10:04:48.769Z,1988.00
2023-03-03T10:05:48.777Z,1968.00
2023-03-03T10:06:48.418Z,2044.00
2023-03-03T10:07:48.442Z,2192.00
2023-03-03T10:08:48.411Z,2216.00
2023-03-03T10:09:48.404Z,2088.00
2023-03-03T10:10:48.393Z,2140.00
2023-03-03T10:11:48.766Z,2228.00
2023-03-03T10:12:48.533Z,2168.00
2023-03-03T10:13:48.355Z,2200.00
2023-03-03T10:14:48.341Z,2188.00
2023-03-03T10:15:48.338Z,2244.00
2023-03-03T10:16:48.374Z,2204.00
2023-03-03T10:17:48.648Z,2272.00
2023-03-03T10:18:48.657Z,2292.00
2023-03-03T10:19:48.298Z,2308.00
2023-03-03T10:20:51.314Z,2300.00
2023-03-03T10:21:48.282Z,2300.00
2023-03-03T10:22:48.252Z,2424.00
2023-03-03T10:23:48.568Z,2776.00
2023-03-03T10:24:48.216Z,3136.00
2023-03-03T10:25:48.487Z,3392.00
2023-03-03T10:27:01.759Z,3060.00
2023-03-03T10:27:49.285Z,2916.00
2023-03-03T10:28:48.180Z,3032.00
2023-03-03T10:29:48.188Z,3132.00
2023-03-03T10:31:02.581Z,3000.00
2023-03-03T10:31:49.286Z,2864.00
2023-03-03T10:32:48.405Z,2796.00
2023-03-03T10:33:48.260Z,2764.00
2023-03-03T10:34:48.113Z,2648.00
2023-03-03T10:36:04.662Z,2632.00
2023-03-03T10:36:49.095Z,2816.00
2023-03-03T10:37:48.131Z,2804.00
2023-03-03T10:38:48.082Z,2896.00
2023-03-03T10:39:48.052Z,2908.00
2023-03-03T10:40:48.037Z,2928.00
2023-03-03T10:41:48.045Z,3044.00
2023-03-03T10:42:48.048Z,3240.00
2023-03-03T10:43:48.032Z,3436.00
2023-03-03T10:44:47.992Z,3464.00
2023-03-03T10:45:48.036Z,3356.00
2023-03-03T10:46:47.983Z,3400.00
2023-03-03T10:47:47.960Z,3540.00
2023-03-03T10:48:47.983Z,3504.00
2023-03-03T10:49:47.950Z,3636.00
2023-03-03T10:50:47.952Z,3968.00
2023-03-03T10:51:47.913Z,4088.00
2023-03-03T10:52:47.911Z,3812.00
2023-03-03T10:53:47.937Z,3944.00
2023-03-03T10:54:47.918Z,4116.00
2023-03-03T10:55:47.960Z,4212.00
2023-03-03T10:56:53.332Z,4328.00
2023-03-03T10:57:48.849Z,4108.00
2023-03-03T10:58:47.936Z,4048.00
2023-03-03T10:59:47.861Z,4048.00
2023-03-03T11:00:47.881Z,4052.00
2023-03-03T11:01:47.801Z,3992.00
2023-03-03T11:02:47.788Z,4024.00
2023-03-03T11:03:47.793Z,4072.00
2023-03-03T11:04:47.881Z,3880.00
2023-03-03T11:05:47.791Z,3620.00
2023-03-03T11:06:47.741Z,3600.00
2023-03-03T11:07:47.750Z,3760.00
2023-03-03T11:08:47.718Z,3688.00
2023-03-03T11:09:47.747Z,3524.00
2023-03-03T11:10:47.724Z,3504.00
2023-03-03T11:11:47.704Z,3532.00
2023-03-03T11:12:47.727Z,3736.00
2023-03-03T11:13:47.665Z,3968.00
2023-03-03T11:14:47.675Z,4040.00
2023-03-03T11:15:47.661Z,3984.00
2023-03-03T11:16:47.748Z,4084.00
2023-03-03T11:17:47.640Z,4124.00
2023-03-03T11:18:47.614Z,4044.00
2023-03-03T11:19:47.629Z,4056.00
2023-03-03T11:20:47.603Z,4408.00
2023-03-03T11:21:47.591Z,5176.00
2023-03-03T11:22:47.580Z,5760.00
2023-03-03T11:23:47.565Z,5500.00
2023-03-03T11:24:47.553Z,4952.00
2023-03-03T11:25:47.565Z,4888.00
2023-03-03T11:26:47.561Z,4872.00
2023-03-03T11:27:47.531Z,4712.00
2023-03-03T11:28:47.494Z,4680.00
2023-03-03T11:29:47.487Z,4592.00
2023-03-03T11:30:47.511Z,4244.00
2023-03-03T11:31:47.467Z,4072.00
2023-03-03T11:32:47.479Z,4072.00
2023-03-03T11:33:47.443Z,4432.00
2023-03-03T11:34:47.442Z,4588.00
2023-03-03T11:35:47.432Z,4652.00
2023-03-03T11:36:47.404Z,4832.00
2023-03-03T11:37:47.411Z,4940.00
2023-03-03T11:38:47.392Z,5104.00
2023-03-03T11:39:47.373Z,5388.00
2023-03-03T11:40:47.370Z,5552.00
2023-03-03T11:41:47.416Z,5324.00
2023-03-03T11:42:47.366Z,5332.00
2023-03-03T11:43:47.343Z,4932.00
2023-03-03T11:44:47.357Z,4896.00
2023-03-03T11:45:47.408Z,5132.00
2023-03-03T11:46:47.290Z,5376.00
2023-03-03T11:47:47.318Z,5104.00
2023-03-03T11:48:47.288Z,4952.00
2023-03-03T11:49:47.277Z,4684.00
2023-03-03T11:50:47.250Z,4376.00
2023-03-03T11:51:47.258Z,4328.00
2023-03-03T11:52:47.239Z,4240.00
2023-03-03T11:53:47.234Z,4300.00
2023-03-03T11:54:47.197Z,4684.00
2023-03-03T11:55:47.265Z,4964.00
2023-03-03T11:56:47.189Z,5564.00
2023-03-03T11:57:47.222Z,6068.00
2023-03-03T11:58:47.182Z,5604.00
2023-03-03T11:59:47.159Z,5316.00
2023-03-03T12:00:47.135Z,4920.00
2023-03-03T12:01:47.144Z,4676.00
2023-03-03T12:02:47.179Z,4568.00
2023-03-03T12:03:47.100Z,4488.00
2023-03-03T12:04:47.153Z,4684.00
2023-03-03T12:05:47.131Z,5188.00
2023-03-03T12:06:47.075Z,5756.00
2023-03-03T12:07:47.083Z,5948.00
2023-03-03T12:08:47.038Z,5976.00
2023-03-03T12:09:47.031Z,5964.00
2023-03-03T12:10:47.033Z,6188.00
2023-03-03T12:11:47.024Z,6492.00
2023-03-03T12:12:47.010Z,8928.00
2023-03-03T12:13:47.010Z,9248.00
2023-03-03T12:14:46.993Z,9700.00
2023-03-03T12:15:46.993Z,9928.00
2023-03-03T12:16:46.960Z,8964.00
2023-03-03T12:17:49.044Z,8328.00
2023-03-03T12:18:46.942Z,9476.00
2023-03-03T12:19:46.922Z,9484.00
2023-03-03T12:20:46.943Z,8008.00
2023-03-03T12:21:46.913Z,7668.00
2023-03-03T12:22:50.457Z,8536.00
2023-03-03T12:23:47.892Z,9608.00
2023-03-03T12:24:46.868Z,9168.00
2023-03-03T12:25:46.868Z,8940.00
2023-03-03T12:26:46.849Z,6600.00
2023-03-03T12:27:46.833Z,5948.00
2023-03-03T12:28:46.851Z,6776.00
2023-03-03T12:29:46.871Z,5488.00
2023-03-03T12:30:46.787Z,8080.00
2023-03-03T12:31:46.789Z,9668.00
2023-03-03T12:32:46.782Z,8444.00
2023-03-03T12:33:46.776Z,7996.00
2023-03-03T12:34:46.742Z,8024.00
2023-03-03T12:35:47.564Z,5808.00
2023-03-03T12:36:46.721Z,5208.00
2023-03-03T12:37:46.728Z,4560.00
2023-03-03T12:38:46.751Z,4320.00
2023-03-03T12:39:46.734Z,4220.00
2023-03-03T12:40:46.688Z,4696.00
2023-03-03T12:41:46.668Z,3976.00
2023-03-03T12:42:46.656Z,3768.00
2023-03-03T12:43:46.722Z,3688.00